createdAt,value
2017-12-13T00:00:04.938Z,1011.43
2017-12-13T00:05:03.483Z,1011.33
2017-12-13T00:10:03.039Z,1011.39
2017-12-13T00:15:03.622Z,1011.31
2017-12-13T00:20:03.199Z,1011.4
2017-12-13T00:25:02.783Z,1011.34
2017-12-13T00:30:03.150Z,1011.18
2017-12-13T00:35:02.658Z,1011.31
2017-12-13T00:40:03.391Z,1011.36
2017-12-13T00:45:02.936Z,1011.25
2017-12-13T00:50:03.564Z,1011.18
2017-12-13T00:55:02.961Z,1011.02
2017-12-13T01:00:03.515Z,1011.03
2017-12-13T01:05:02.904Z,1010.97
2017-12-13T01:10:03.354Z,1010.9
2017-12-13T01:15:02.945Z,1010.84
2017-12-13T01:20:03.442Z,1010.75
2017-12-13T01:25:03.066Z,1010.66
2017-12-13T01:30:03.568Z,1010.58
2017-12-13T01:35:03.189Z,1010.61
2017-12-13T01:40:03.632Z,1010.5
2017-12-13T01:45:03.016Z,1010.47
2017-12-13T01:50:03.479Z,1010.47
2017-12-13T01:55:02.968Z,1010.4
2017-12-13T02:00:03.506Z,1010.27
2017-12-13T02:05:03.064Z,1010.16
2017-12-13T02:10:02.729Z,1010.06
2017-12-13T02:15:03.249Z,1009.99
2017-12-13T02:20:02.866Z,1009.97
2017-12-13T02:25:03.100Z,1009.93
2017-12-13T02:30:03.569Z,1009.84
2017-12-13T02:35:03.107Z,1009.71
2017-12-13T02:40:02.753Z,1009.68
2017-12-13T02:45:03.300Z,1009.76
2017-12-13T02:50:02.832Z,1009.59
2017-12-13T02:55:03.305Z,1009.38
2017-12-13T03:00:02.811Z,1009.11
2017-12-13T03:05:03.380Z,1009.18
2017-12-13T03:10:03.022Z,1009.05
2017-12-13T03:15:03.621Z,1008.94
2017-12-13T03:20:03.148Z,1008.84
2017-12-13T03:25:02.703Z,1009.01
2017-12-13T03:30:03.261Z,1008.84
2017-12-13T03:35:02.822Z,1008.68
2017-12-13T03:40:03.434Z,1008.48
2017-12-13T03:45:02.862Z,1008.25
2017-12-13T03:50:03.311Z,1008.18
2017-12-13T03:55:02.778Z,1008.06
2017-12-13T04:00:03.311Z,1007.99
2017-12-13T04:05:02.943Z,1007.81
2017-12-13T04:10:03.606Z,1007.95
2017-12-13T04:15:03.181Z,1007.86
2017-12-13T04:20:02.799Z,1007.81
2017-12-13T04:25:03.349Z,1007.74
2017-12-13T04:30:02.798Z,1007.63
2017-12-13T04:35:03.292Z,1007.4
2017-12-13T04:40:02.733Z,1007.33
2017-12-13T04:45:03.361Z,1007.25
2017-12-13T04:50:02.932Z,1007.11
2017-12-13T04:55:03.307Z,1007.05
2017-12-13T05:00:03.617Z,1007.13
2017-12-13T05:05:03.266Z,1007.04
2017-12-13T05:10:02.790Z,1006.89
2017-12-13T05:15:03.278Z,1006.8
2017-12-13T05:20:02.936Z,1006.72
2017-12-13T05:25:03.474Z,1006.54
2017-12-13T05:30:03.283Z,1006.5
2017-12-13T05:35:02.785Z,1006.4
2017-12-13T05:40:03.416Z,1006.4
2017-12-13T05:45:03.140Z,1006.32
2017-12-13T05:50:02.713Z,1006.11
2017-12-13T05:55:03.326Z,1006
2017-12-13T06:00:02.812Z,1006.06
2017-12-13T06:05:03.439Z,1005.87
2017-12-13T06:10:02.941Z,1005.63
2017-12-13T06:15:03.423Z,1005.49
2017-12-13T06:20:02.821Z,1005.41
2017-12-13T06:25:03.435Z,1005.27
2017-12-13T06:30:02.978Z,1005.31
2017-12-13T06:35:03.580Z,1005.23
2017-12-13T06:40:03.279Z,1005.22
2017-12-13T06:45:02.849Z,1005.11
2017-12-13T06:50:03.299Z,1004.89
2017-12-13T06:55:02.892Z,1004.93
2017-12-13T07:00:03.667Z,1004.91
2017-12-13T07:05:03.202Z,1004.87
2017-12-13T07:10:03.649Z,1004.81
2017-12-13T07:15:03.154Z,1004.82
2017-12-13T07:20:02.719Z,1004.47
2017-12-13T07:25:03.408Z,1004.47
2017-12-13T07:30:02.832Z,1004.36
2017-12-13T07:35:03.464Z,1004.1
2017-12-13T07:40:03.128Z,1004
2017-12-13T07:45:02.728Z,1003.84
2017-12-13T07:50:03.235Z,1003.67
2017-12-13T07:55:03.597Z,1003.94
2017-12-13T08:00:03.026Z,1003.73
2017-12-13T08:05:03.436Z,1003.27
2017-12-13T08:10:02.915Z,1003.2
2017-12-13T08:15:03.519Z,1003.21
2017-12-13T08:20:03.040Z,1002.98
2017-12-13T08:25:03.532Z,1002.86
2017-12-13T08:30:03.172Z,1002.76
2017-12-13T08:35:03.560Z,1002.67
2017-12-13T08:40:03.165Z,1002.59
2017-12-13T08:45:03.632Z,1002.26
2017-12-13T08:50:03.266Z,1002.22
2017-12-13T08:55:02.858Z,1002.04
2017-12-13T09:00:03.302Z,1002.04
2017-12-13T09:05:02.822Z,1001.8
2017-12-13T09:10:03.403Z,1001.65
2017-12-13T09:15:02.890Z,1001.71
2017-12-13T09:20:03.396Z,1001.74
2017-12-13T09:25:02.931Z,1001.55
2017-12-13T09:30:03.394Z,1001.68
2017-12-13T09:35:02.959Z,1001.54
2017-12-13T09:40:03.614Z,1001.37
2017-12-13T09:45:03.096Z,1001.28
2017-12-13T09:50:03.637Z,1001.09
2017-12-13T09:55:03.201Z,1001.03
2017-12-13T10:00:02.687Z,1000.86
2017-12-13T10:05:03.367Z,1000.91
2017-12-13T10:10:02.897Z,1000.6
2017-12-13T10:15:03.518Z,1000.48
2017-12-13T10:20:03.049Z,1000.56
2017-12-13T10:25:03.600Z,1000.24
2017-12-13T10:30:03.045Z,1000.23
2017-12-13T10:35:03.544Z,999.94
2017-12-13T10:40:02.984Z,999.88
2017-12-13T10:45:03.512Z,999.79
2017-12-13T10:50:02.928Z,999.52
2017-12-13T10:55:03.465Z,999.31
2017-12-13T11:00:03.118Z,999.31
2017-12-13T11:05:03.579Z,999.25
2017-12-13T11:10:03.108Z,999.11
2017-12-13T11:15:03.574Z,998.81
2017-12-13T11:20:03.284Z,998.63
2017-12-13T11:25:02.763Z,998.67
2017-12-13T11:30:03.253Z,998.38
2017-12-13T11:35:02.717Z,998.32
2017-12-13T11:40:03.263Z,998.03
2017-12-13T11:45:02.830Z,998.01
2017-12-13T11:50:03.513Z,997.78
2017-12-13T11:55:02.989Z,997.7
2017-12-13T12:00:03.562Z,997.56
2017-12-13T12:05:03.088Z,997.39
2017-12-13T12:10:02.768Z,997.75
2017-12-13T12:15:03.393Z,997.23
2017-12-13T12:20:02.878Z,996.88
2017-12-13T12:25:03.459Z,996.93
2017-12-13T12:30:02.914Z,996.52
2017-12-13T12:35:03.347Z,996.61
2017-12-13T12:40:02.901Z,996.5
2017-12-13T12:45:03.478Z,996.15
2017-12-13T12:50:03.015Z,996.05
2017-12-13T12:55:03.446Z,996.21
2017-12-13T13:00:03.066Z,996
2017-12-13T13:05:03.569Z,995.95
2017-12-13T13:10:03.246Z,995.67
2017-12-13T13:15:02.734Z,995.77
2017-12-13T13:20:03.287Z,995.82
2017-12-13T13:25:02.872Z,995.78
2017-12-13T13:30:03.331Z,995.5
2017-12-13T13:35:03.020Z,995.88
2017-12-13T13:40:03.472Z,995.62
2017-12-13T13:45:03.201Z,995.64
2017-12-13T13:50:02.804Z,995.87
2017-12-13T13:55:03.271Z,995.63
2017-12-13T14:00:02.731Z,995.68
2017-12-13T14:05:03.424Z,995.69
2017-12-13T14:10:02.913Z,995.6
2017-12-13T14:15:03.475Z,995.65
2017-12-13T14:20:03.048Z,995.55
2017-12-13T14:25:03.592Z,995.6
2017-12-13T14:30:03.194Z,995.71
2017-12-13T14:40:03.587Z,995.59
2017-12-13T14:45:03.246Z,995.52
2017-12-13T14:50:02.931Z,995.49
2017-12-13T14:55:03.519Z,995.57
2017-12-13T15:00:02.951Z,995.56
2017-12-13T15:05:03.479Z,995.56
2017-12-13T15:10:03.104Z,995.51
2017-12-13T15:15:03.634Z,995.52
2017-12-13T15:20:03.120Z,995.32
2017-12-13T15:25:03.557Z,995.24
2017-12-13T15:30:02.984Z,995.14
2017-12-13T15:35:03.573Z,995.09
2017-12-13T15:40:03.228Z,995.19
2017-12-13T15:45:02.840Z,994.97
2017-12-13T15:50:03.309Z,995.05
2017-12-13T15:55:02.872Z,994.74
2017-12-13T16:00:03.475Z,994.57
2017-12-13T16:05:03.145Z,994.57
2017-12-13T16:10:03.671Z,994.49
2017-12-13T16:15:03.168Z,994.48
2017-12-13T16:20:02.677Z,994.11
2017-12-13T16:25:03.321Z,994.15
2017-12-13T16:30:02.797Z,993.92
2017-12-13T16:35:03.527Z,993.79
2017-12-13T16:40:03.083Z,993.7
2017-12-13T16:45:03.654Z,993.62
2017-12-13T16:50:03.256Z,993.63
2017-12-13T16:55:02.886Z,993.54
2017-12-13T17:00:03.520Z,993.19
2017-12-13T17:05:02.997Z,993.08
2017-12-13T17:10:03.465Z,993.06
2017-12-13T17:15:03.018Z,992.78
2017-12-13T17:20:03.564Z,992.68
2017-12-13T17:25:03.013Z,992.57
2017-12-13T17:30:02.708Z,992.34
2017-12-13T17:35:03.283Z,992.1
2017-12-13T17:40:02.959Z,992.01
2017-12-13T17:45:03.305Z,991.75
2017-12-13T17:50:02.738Z,991.62
2017-12-13T17:55:03.402Z,991.46
2017-12-13T18:00:02.856Z,991.18
2017-12-13T18:05:03.486Z,991.05
2017-12-13T18:10:02.870Z,990.74
2017-12-13T18:15:03.486Z,990.58
2017-12-13T18:20:03.162Z,990.39
2017-12-13T18:25:02.734Z,990.36
2017-12-13T18:30:03.386Z,990.14
2017-12-13T18:35:02.876Z,990.03
2017-12-13T18:40:03.340Z,989.68
2017-12-13T18:45:03.002Z,989.5
2017-12-13T18:50:03.626Z,989.41
2017-12-13T18:55:03.156Z,989.29
2017-12-13T19:00:03.646Z,988.99
2017-12-13T19:05:03.188Z,988.78
2017-12-13T19:10:02.772Z,988.47
2017-12-13T19:15:03.330Z,988.3
2017-12-13T19:20:03.042Z,988.14
2017-12-13T19:25:03.646Z,987.84
2017-12-13T19:30:03.263Z,987.9
2017-12-13T19:35:02.673Z,987.81
2017-12-13T19:40:03.191Z,987.67
2017-12-13T19:45:03.625Z,987.41
2017-12-13T19:50:03.050Z,987.29
2017-12-13T19:55:03.514Z,986.88
2017-12-13T20:00:02.999Z,986.72
2017-12-13T20:05:03.579Z,986.39
2017-12-13T20:10:03.308Z,986.21
2017-12-13T20:15:02.751Z,985.72
2017-12-13T20:20:03.391Z,985.69
2017-12-13T20:25:02.847Z,985.68
2017-12-13T20:30:03.334Z,985.51
2017-12-13T20:35:02.922Z,985.28
2017-12-13T20:40:03.517Z,985.24
2017-12-13T20:45:03.035Z,985.06
2017-12-13T20:50:03.583Z,985.04
2017-12-13T20:55:03.051Z,985.16
2017-12-13T21:00:03.829Z,985.31
2017-12-13T21:05:03.518Z,985.35
2017-12-13T21:10:03.042Z,985.01
2017-12-13T21:15:03.542Z,984.75
2017-12-13T21:20:03.043Z,984.53
2017-12-13T21:25:03.561Z,984.44
2017-12-13T21:30:02.996Z,984.5
2017-12-13T21:35:03.663Z,984.77
2017-12-13T21:40:03.131Z,984.94
2017-12-13T21:45:03.548Z,984.73
2017-12-13T21:50:03.087Z,985.02
2017-12-13T21:55:03.670Z,985.07
2017-12-13T22:00:03.221Z,985.27
2017-12-13T22:05:02.741Z,985.47
2017-12-13T22:10:03.362Z,985.47
2017-12-13T22:15:02.760Z,985.63
2017-12-13T22:20:03.478Z,985.81
2017-12-13T22:25:03.207Z,986.09
2017-12-13T22:30:02.773Z,986.16
2017-12-13T22:35:03.392Z,986.53
2017-12-13T22:40:02.858Z,986.72
2017-12-13T22:45:03.335Z,986.76
2017-12-13T22:50:02.954Z,986.68
2017-12-13T22:55:03.584Z,986.75
2017-12-13T23:00:03.254Z,986.79
2017-12-13T23:05:02.707Z,986.85
2017-12-13T23:10:03.265Z,986.95
2017-12-13T23:15:02.951Z,987.22
2017-12-13T23:20:03.447Z,987.04
2017-12-13T23:25:02.903Z,987.13
2017-12-13T23:30:03.562Z,987.05
2017-12-13T23:35:03.042Z,986.97
2017-12-13T23:40:02.712Z,987.01
2017-12-13T23:45:03.233Z,986.98
2017-12-13T23:50:02.668Z,986.86
2017-12-13T23:55:03.255Z,986.83
